GMMN/CMN METAR and TAF weather

Enter ICAO airport designator
Station Type Date Time Source
GMMN METAR 2018/10/16 20:30 UTC NOAA

GMMN 162030Z 28004KT 9999 FEW016 SCT040 18/18 Q1018 NOSIG


Station Type Date Time Source
GMMN Decoded METAR 2018/10/16 20:30 UTC NOAA

Nouasseur, Morocco (GMMN) 33-22N 007-35W 206M
Oct 16, 2018 - 04:30 PM EDT / 2018.10.16 2030 UTC
Wind: from the W (280 degrees) at 5 MPH (4 KT):0
Visibility: greater than 7 mile(s):0
Sky conditions: partly cloudy
Temperature: 64 F (18 C)
Dew Point: 64 F (18 C)
Relative Humidity: 100%
Pressure (altimeter): 30.06 in. Hg (1018 hPa)
ob: GMMN 162030Z 28004KT 9999 FEW016 SCT040 18/18 Q1018 NOSIG
cycle: 20

Station Type Date Time Source
GMMN TAF 2018/10/16 18:24 UTC NOAA

TAF COR TAF COR GMMN 161700Z 1618/1724 30012KT 8000 FEW016 SCT020 PROB30
TEMPO 1706/1710 22008KT 6000 RA BKN016
BECMG 1710/1712 34012KT 8000 SCT016 SCT020


Example: see airport list